createdAt,value
2023-01-08T00:00:58.552Z,95358.97
2023-01-08T00:03:01.392Z,95318.09
2023-01-08T00:05:04.627Z,95374.63
2023-01-08T00:07:07.407Z,95365.91
2023-01-08T00:09:11.052Z,95350.53
2023-01-08T00:11:14.175Z,95368.94
2023-01-08T00:13:16.880Z,95314.06
2023-01-08T00:15:19.607Z,95356.78
2023-01-08T00:17:23.705Z,95349.25
2023-01-08T00:19:26.461Z,95352.38
2023-01-08T00:21:29.694Z,95338.72
2023-01-08T00:23:32.580Z,95335.47
2023-01-08T00:25:35.296Z,95331.63
2023-01-08T00:27:38.030Z,95301.41
2023-01-08T00:29:40.804Z,95285.31
2023-01-08T00:31:43.557Z,95326.88
2023-01-08T00:33:47.704Z,95320.25
2023-01-08T00:35:50.483Z,95315.50
2023-01-08T00:37:53.423Z,95306.81
2023-01-08T00:39:56.271Z,95316.56
2023-01-08T00:41:59.060Z,95307.06
2023-01-08T00:44:01.807Z,95315.31
2023-01-08T00:46:05.026Z,95300.94
2023-01-08T00:48:07.993Z,95313.56
2023-01-08T00:50:12.754Z,95296.66
2023-01-08T00:52:15.488Z,95294.44
2023-01-08T00:54:18.216Z,95294.78
2023-01-08T00:56:20.966Z,95281.13
2023-01-08T00:58:23.731Z,95293.84
2023-01-08T01:00:26.562Z,95274.28
2023-01-08T01:02:29.383Z,95287.34
2023-01-08T01:04:32.213Z,95162.88
2023-01-08T01:06:36.310Z,95293.97
2023-01-08T01:08:39.051Z,95296.50
2023-01-08T01:10:41.752Z,95275.56
2023-01-08T01:12:45.239Z,95283.06
2023-01-08T01:14:47.993Z,95227.88
2023-01-08T01:16:50.835Z,95276.94
2023-01-08T01:18:55.382Z,95270.19
2023-01-08T01:20:58.126Z,95274.03
2023-01-08T01:23:02.287Z,95270.91
2023-01-08T01:25:06.925Z,95280.28
2023-01-08T01:27:09.641Z,95288.94
2023-01-08T01:29:12.353Z,95143.31
2023-01-08T01:31:16.136Z,95290.47
2023-01-08T01:33:18.929Z,95244.53
2023-01-08T01:35:21.688Z,95290.66
2023-01-08T01:37:24.447Z,95290.44
2023-01-08T01:39:28.703Z,95291.81
2023-01-08T01:41:34.433Z,95295.63
2023-01-08T01:43:39.412Z,95300.72
2023-01-08T01:45:43.549Z,95301.06
2023-01-08T01:47:48.943Z,95288.19
2023-01-08T01:49:56.082Z,95295.13
2023-01-08T01:52:04.404Z,95270.44
2023-01-08T01:54:12.018Z,95283.03
2023-01-08T01:56:16.907Z,95282.09
2023-01-08T01:58:23.739Z,95273.84
2023-01-08T02:00:28.432Z,95271.50
2023-01-08T02:02:32.470Z,95274.19
2023-01-08T02:04:35.413Z,95266.59
2023-01-08T02:06:43.050Z,95269.97
2023-01-08T02:08:57.628Z,95243.28
2023-01-08T02:11:08.162Z,95257.69
2023-01-08T02:13:17.545Z,95258.00
2023-01-08T02:15:25.035Z,95224.84
2023-01-08T02:17:35.523Z,95205.59
2023-01-08T02:19:43.758Z,95218.97
2023-01-08T02:21:59.299Z,95243.13
2023-01-08T02:24:06.557Z,95200.75
2023-01-08T02:26:16.463Z,95232.63
2023-01-08T02:28:19.880Z,95221.13
2023-01-08T02:30:22.931Z,95219.53
2023-01-08T02:32:28.519Z,95210.47
2023-01-08T02:34:32.452Z,95219.75
2023-01-08T02:36:40.353Z,95153.88
2023-01-08T02:38:53.976Z,95214.25
2023-01-08T02:41:05.742Z,95212.88
2023-01-08T02:43:15.654Z,95202.22
2023-01-08T02:45:29.722Z,95196.78
2023-01-08T02:47:36.450Z,95201.22
2023-01-08T02:49:42.359Z,95198.22
2023-01-08T02:51:51.695Z,95205.41
2023-01-08T02:54:00.210Z,95198.88
2023-01-08T02:56:06.565Z,95132.09
2023-01-08T02:58:12.617Z,95210.94
2023-01-08T03:00:16.239Z,95187.97
2023-01-08T03:02:19.280Z,95185.41
2023-01-08T03:04:25.095Z,95180.94
2023-01-08T03:06:28.898Z,95190.25
2023-01-08T03:08:33.276Z,95045.13
2023-01-08T03:10:39.881Z,95131.50
2023-01-08T03:12:50.084Z,95182.25
2023-01-08T03:15:00.247Z,95130.47
2023-01-08T03:17:08.018Z,95177.31
2023-01-08T03:19:14.068Z,95147.34
2023-01-08T03:21:18.981Z,95164.53
2023-01-08T03:23:23.829Z,95163.56
2023-01-08T03:25:29.421Z,95170.53
2023-01-08T03:27:38.625Z,95154.28
2023-01-08T03:29:41.829Z,95161.16
2023-01-08T03:31:48.053Z,95152.75
2023-01-08T03:33:51.614Z,95162.03
2023-01-08T03:35:56.054Z,95156.94
2023-01-08T03:38:05.755Z,95118.91
2023-01-08T03:40:12.740Z,95117.97
2023-01-08T03:42:18.960Z,95117.00
2023-01-08T03:44:21.673Z,95153.72
2023-01-08T03:46:32.592Z,95150.16
2023-01-08T03:48:38.979Z,95151.69
2023-01-08T03:50:42.212Z,95165.03
2023-01-08T03:52:44.917Z,95162.69
2023-01-08T03:54:47.719Z,95144.72
2023-01-08T03:56:50.465Z,95148.34
2023-01-08T03:58:53.185Z,95129.91
2023-01-08T04:00:55.889Z,95144.81
2023-01-08T04:02:58.662Z,95153.03
2023-01-08T04:05:02.879Z,95170.84
2023-01-08T04:07:06.184Z,95172.94
2023-01-08T04:09:08.895Z,95174.63
2023-01-08T04:11:11.605Z,95170.53
2023-01-08T04:13:14.298Z,95153.78
2023-01-08T04:15:17.434Z,95161.78
2023-01-08T04:17:20.209Z,95180.94
2023-01-08T04:19:22.977Z,95178.44
2023-01-08T04:21:27.037Z,95168.81
2023-01-08T04:23:29.790Z,95154.66
2023-01-08T04:25:32.486Z,95175.69
2023-01-08T04:27:35.217Z,95181.75
2023-01-08T04:29:37.958Z,95169.84
2023-01-08T04:31:40.985Z,95181.66
2023-01-08T04:33:43.681Z,95174.38
2023-01-08T04:35:46.410Z,95184.38
2023-01-08T04:37:50.713Z,95145.75
2023-01-08T04:39:53.443Z,95179.13
2023-01-08T04:41:56.308Z,95176.59
2023-01-08T04:43:59.013Z,95195.78
2023-01-08T04:46:03.087Z,95183.22
2023-01-08T04:48:06.167Z,95179.75
2023-01-08T04:50:09.781Z,95171.66
2023-01-08T04:52:12.659Z,95186.00
2023-01-08T04:54:16.912Z,95141.53
2023-01-08T04:56:19.700Z,95179.19
2023-01-08T04:58:22.584Z,95172.47
2023-01-08T05:00:25.343Z,95180.81
2023-01-08T05:02:28.186Z,95189.06
2023-01-08T05:04:31.257Z,95177.88
2023-01-08T05:06:34.617Z,95170.19
2023-01-08T05:08:37.414Z,95149.50
2023-01-08T05:10:41.540Z,95173.94
2023-01-08T05:12:44.264Z,95174.19
2023-01-08T05:14:47.249Z,95172.31
2023-01-08T05:16:50.029Z,95168.22
2023-01-08T05:18:52.764Z,95179.28
2023-01-08T05:20:55.733Z,95099.06
2023-01-08T05:22:58.528Z,95170.13
2023-01-08T05:25:01.347Z,95161.91
2023-01-08T05:27:05.556Z,95159.16
2023-01-08T05:29:08.274Z,95172.84
2023-01-08T05:31:11.659Z,95170.97
2023-01-08T05:33:14.449Z,95172.09
2023-01-08T05:35:17.320Z,95181.97
2023-01-08T05:37:20.116Z,95171.03
2023-01-08T05:39:22.926Z,95163.56
2023-01-08T05:41:25.823Z,95170.78
2023-01-08T05:43:30.158Z,95158.66
2023-01-08T05:45:33.181Z,95159.78
2023-01-08T05:47:36.380Z,95158.97
2023-01-08T05:49:39.117Z,95153.31
2023-01-08T05:51:41.831Z,95140.16
2023-01-08T05:53:44.659Z,95141.81
2023-01-08T05:55:47.477Z,95145.91
2023-01-08T05:57:50.253Z,95138.88
2023-01-08T05:59:54.341Z,95136.22
2023-01-08T06:01:57.188Z,95136.22
2023-01-08T06:04:00.013Z,95116.28
2023-01-08T06:06:03.980Z,95138.28
2023-01-08T06:08:08.662Z,95142.63
2023-01-08T06:10:11.676Z,95122.13
2023-01-08T06:12:14.481Z,95143.94
2023-01-08T06:14:17.495Z,95128.53
2023-01-08T06:16:22.025Z,95126.94
2023-01-08T06:18:24.884Z,95129.16
2023-01-08T06:20:27.612Z,95097.41
2023-01-08T06:22:31.433Z,95130.22
2023-01-08T06:24:35.603Z,95127.59
2023-01-08T06:26:38.304Z,95132.13
2023-01-08T06:28:41.023Z,95141.97
2023-01-08T06:30:43.866Z,95146.50
2023-01-08T06:32:48.049Z,95134.50
2023-01-08T06:34:50.844Z,95139.22
2023-01-08T06:36:54.188Z,95134.88
2023-01-08T06:38:57.009Z,95131.91
2023-01-08T06:40:59.786Z,95127.38
2023-01-08T06:43:02.912Z,95123.59
2023-01-08T06:45:06.975Z,95127.56
2023-01-08T06:47:09.710Z,95116.88
2023-01-08T06:49:14.798Z,95124.59
2023-01-08T06:51:17.518Z,95116.56
2023-01-08T06:53:20.256Z,95117.69
2023-01-08T06:55:23.220Z,95131.03
2023-01-08T06:57:26.034Z,95140.13
2023-01-08T06:59:28.834Z,95129.94
2023-01-08T07:01:31.692Z,95129.69
2023-01-08T07:03:34.522Z,95135.03
2023-01-08T07:05:38.632Z,95136.44
2023-01-08T07:07:41.366Z,95131.91
2023-01-08T07:09:44.498Z,95081.34
2023-01-08T07:11:47.245Z,95125.13
2023-01-08T07:13:49.989Z,95132.84
2023-01-08T07:15:52.803Z,95133.09
2023-01-08T07:17:55.563Z,95130.50
2023-01-08T07:19:58.278Z,95134.78
2023-01-08T07:22:02.997Z,95123.78
2023-01-08T07:24:07.678Z,95132.34
2023-01-08T07:26:10.467Z,95139.06
2023-01-08T07:28:13.708Z,95135.84
2023-01-08T07:30:28.727Z,95108.69
2023-01-08T07:32:31.898Z,95138.09
2023-01-08T07:34:34.844Z,95131.81
2023-01-08T07:36:37.755Z,95136.88
2023-01-08T07:38:42.382Z,95124.69
2023-01-08T07:40:45.093Z,95133.53
2023-01-08T07:42:48.061Z,95137.38
2023-01-08T07:44:50.878Z,95136.22
2023-01-08T07:46:53.753Z,95141.47
2023-01-08T07:48:57.481Z,95151.03
2023-01-08T07:51:03.218Z,95152.41
2023-01-08T07:53:06.091Z,95136.00
2023-01-08T07:55:10.794Z,95109.16
2023-01-08T07:57:13.550Z,95135.44
2023-01-08T07:59:16.282Z,95119.03
2023-01-08T08:01:19.333Z,95126.81
2023-01-08T08:03:22.183Z,95131.16
2023-01-08T08:05:24.924Z,95133.03
2023-01-08T08:07:27.632Z,95138.69
2023-01-08T08:09:30.380Z,95124.75
2023-01-08T08:11:34.450Z,95126.31
2023-01-08T08:13:37.188Z,95122.22
2023-01-08T08:15:41.127Z,95118.00
2023-01-08T08:17:46.165Z,95113.44
2023-01-08T08:19:48.974Z,95090.28
2023-01-08T08:21:51.664Z,95122.03
2023-01-08T08:23:54.412Z,95130.28
2023-01-08T08:25:57.127Z,95113.75
2023-01-08T08:28:02.971Z,95117.19
2023-01-08T08:30:06.630Z,95113.59
2023-01-08T08:32:09.330Z,95112.44
2023-01-08T08:34:12.101Z,95113.00
2023-01-08T08:36:14.862Z,95110.31
2023-01-08T08:38:17.719Z,95109.53
2023-01-08T08:40:20.466Z,95116.78
2023-01-08T08:42:23.176Z,95107.09
2023-01-08T08:44:27.229Z,95103.38
2023-01-08T08:46:30.463Z,95099.44
2023-01-08T08:48:33.202Z,95104.22
2023-01-08T08:50:36.697Z,95098.53
2023-01-08T08:52:39.853Z,95103.88
2023-01-08T08:54:42.618Z,95105.28
2023-01-08T08:56:45.333Z,95098.63
2023-01-08T08:58:48.035Z,95098.03
2023-01-08T09:00:52.011Z,95087.84
2023-01-08T09:02:54.806Z,95101.44
2023-01-08T09:04:57.640Z,95019.84
2023-01-08T09:07:00.527Z,95091.41
2023-01-08T09:09:03.248Z,95092.28
2023-01-08T09:11:06.370Z,95070.69
2023-01-08T09:13:09.107Z,95086.81
2023-01-08T09:15:12.723Z,95076.44
2023-01-08T09:17:17.016Z,95076.13
2023-01-08T09:19:19.951Z,95093.09
2023-01-08T09:21:22.636Z,95095.00
2023-01-08T09:23:25.386Z,95011.19
2023-01-08T09:25:28.307Z,95087.28
2023-01-08T09:27:31.031Z,95099.84
2023-01-08T09:29:33.728Z,95081.88
2023-01-08T09:31:36.596Z,95093.44
2023-01-08T09:33:40.676Z,95104.94
2023-01-08T09:35:44.749Z,95095.03
2023-01-08T09:37:51.545Z,95055.25
2023-01-08T09:40:01.672Z,95093.44
2023-01-08T09:42:07.056Z,95099.03
2023-01-08T09:44:16.298Z,95071.44
2023-01-08T09:46:20.484Z,95097.13
2023-01-08T09:48:27.400Z,95111.03
2023-01-08T09:50:32.937Z,95108.38
2023-01-08T09:52:35.756Z,95106.28
2023-01-08T09:54:38.543Z,95105.84
2023-01-08T09:56:41.366Z,95107.41
2023-01-08T09:58:46.332Z,95105.84
2023-01-08T10:00:49.139Z,95107.97
2023-01-08T10:02:54.017Z,95098.44
2023-01-08T10:04:59.152Z,95109.69
2023-01-08T10:07:12.702Z,95102.16
2023-01-08T10:09:15.934Z,95112.84
2023-01-08T10:11:19.103Z,95114.78
2023-01-08T10:13:22.189Z,95102.72
2023-01-08T10:15:25.247Z,95087.63
2023-01-08T10:17:31.823Z,95116.41
2023-01-08T10:19:34.534Z,95100.06
2023-01-08T10:21:40.571Z,95089.09
2023-01-08T10:23:51.869Z,95082.06
2023-01-08T10:25:56.538Z,95092.16
2023-01-08T10:28:02.177Z,95087.38
2023-01-08T10:30:08.943Z,95084.81
2023-01-08T10:32:16.005Z,95080.28
2023-01-08T10:34:33.546Z,95069.50
2023-01-08T10:36:41.175Z,95064.81
2023-01-08T10:38:52.133Z,94980.41
2023-01-08T10:40:56.250Z,95070.00
2023-01-08T10:43:07.769Z,95073.19
2023-01-08T10:45:17.658Z,95063.78
2023-01-08T10:47:20.643Z,95067.53
2023-01-08T10:49:31.791Z,95055.25
2023-01-08T10:51:34.868Z,95052.53
2023-01-08T10:53:37.568Z,95065.41
2023-01-08T10:55:41.588Z,95029.34
2023-01-08T10:57:53.954Z,94960.28
2023-01-08T10:59:57.004Z,95065.25
2023-01-08T11:02:00.152Z,95047.84
2023-01-08T11:04:05.936Z,95010.25
2023-01-08T11:06:13.607Z,95036.44
2023-01-08T11:08:21.865Z,95039.59
2023-01-08T11:10:27.429Z,95034.31
2023-01-08T11:12:36.744Z,95024.41
2023-01-08T11:14:39.947Z,95020.72
2023-01-08T11:16:43.300Z,95032.50
2023-01-08T11:18:48.923Z,95023.19
2023-01-08T11:20:53.089Z,95010.56
2023-01-08T11:23:05.852Z,95022.16
2023-01-08T11:25:14.365Z,95007.97
2023-01-08T11:27:22.282Z,95020.88
2023-01-08T11:29:32.770Z,95020.28
2023-01-08T11:31:40.632Z,94958.28
2023-01-08T11:33:45.654Z,95007.75
2023-01-08T11:35:53.908Z,95001.31
2023-01-08T11:37:59.573Z,94997.88
2023-01-08T11:40:02.572Z,95003.00
2023-01-08T11:42:16.087Z,94993.38
2023-01-08T11:44:34.366Z,94987.19
2023-01-08T11:46:48.837Z,94980.19
2023-01-08T11:49:10.277Z,94986.94
2023-01-08T11:51:36.262Z,94977.03
2023-01-08T11:53:44.361Z,94969.03
2023-01-08T11:55:56.265Z,94971.16
2023-01-08T11:58:22.851Z,94976.00
2023-01-08T12:00:47.424Z,94961.78
2023-01-08T12:02:55.722Z,94947.31
2023-01-08T12:05:25.535Z,94952.91
2023-01-08T12:07:37.836Z,94932.50
2023-01-08T12:09:43.685Z,94943.81
2023-01-08T12:11:56.044Z,94928.56
2023-01-08T12:14:20.154Z,94939.03
2023-01-08T12:16:41.103Z,94940.63
2023-01-08T12:19:01.651Z,94928.84
2023-01-08T12:21:14.003Z,94936.09
2023-01-08T12:23:31.186Z,94930.47
2023-01-08T12:25:48.449Z,94910.63
2023-01-08T12:28:02.285Z,94928.31
2023-01-08T12:30:18.727Z,94931.00
2023-01-08T12:32:36.178Z,94927.78
2023-01-08T12:34:49.403Z,94924.31
2023-01-08T12:37:03.443Z,94933.16
2023-01-08T12:39:13.367Z,94926.69
2023-01-08T12:41:20.285Z,94925.38
2023-01-08T12:43:29.248Z,94919.22
2023-01-08T12:45:36.348Z,94930.72
2023-01-08T12:47:43.190Z,94778.41
2023-01-08T12:49:51.467Z,94927.78
2023-01-08T12:52:03.288Z,94914.91
2023-01-08T12:54:16.397Z,94919.75
2023-01-08T12:56:25.391Z,94922.44
2023-01-08T12:58:35.276Z,94881.41
2023-01-08T13:00:42.497Z,94884.88
2023-01-08T13:02:54.326Z,94917.59
2023-01-08T13:04:57.077Z,94919.19
2023-01-08T13:07:03.136Z,94874.44
2023-01-08T13:09:06.089Z,94907.41
2023-01-08T13:11:09.701Z,94903.13
2023-01-08T13:13:28.159Z,94896.16
2023-01-08T13:15:32.785Z,94895.88
2023-01-08T13:17:38.570Z,94892.41
2023-01-08T13:19:44.262Z,94878.44
2023-01-08T13:21:53.249Z,94904.19
2023-01-08T13:24:01.255Z,94870.94
2023-01-08T13:26:06.169Z,94824.56
2023-01-08T13:28:27.881Z,94872.03
2023-01-08T13:30:38.189Z,94899.63
2023-01-08T13:32:47.324Z,94885.69
2023-01-08T13:35:02.716Z,94881.41
2023-01-08T13:37:11.392Z,94881.41
2023-01-08T13:39:24.190Z,94882.75
2023-01-08T13:41:27.878Z,94871.75
2023-01-08T13:43:32.729Z,94861.84
2023-01-08T13:45:36.743Z,94843.88
2023-01-08T13:47:44.245Z,94842.19
2023-01-08T13:49:53.129Z,94842.91
2023-01-08T13:51:55.952Z,94824.38
2023-01-08T13:54:03.980Z,94799.53
2023-01-08T13:56:09.691Z,94834.06
2023-01-08T13:58:18.972Z,94816.66
2023-01-08T14:00:29.312Z,94817.75
2023-01-08T14:02:34.041Z,94815.34
2023-01-08T14:04:36.877Z,94810.03
2023-01-08T14:06:40.938Z,94818.63
2023-01-08T14:08:51.080Z,94814.06
2023-01-08T14:10:55.144Z,94815.41
2023-01-08T14:13:06.829Z,94824.84
2023-01-08T14:15:16.999Z,94821.88
2023-01-08T14:17:22.181Z,94821.09
2023-01-08T14:19:26.641Z,94828.31
2023-01-08T14:21:30.417Z,94826.19
2023-01-08T14:23:38.484Z,94792.16
2023-01-08T14:25:42.305Z,94802.59
2023-01-08T14:27:55.992Z,94817.31
2023-01-08T14:29:59.523Z,94825.38
2023-01-08T14:32:02.447Z,94743.94
2023-01-08T14:34:06.163Z,94817.06
2023-01-08T14:36:10.162Z,94824.31
2023-01-08T14:38:15.120Z,94821.09
2023-01-08T14:40:30.364Z,94820.03
2023-01-08T14:42:44.006Z,94820.28
2023-01-08T14:44:48.709Z,94755.75
2023-01-08T14:46:51.740Z,94814.69
2023-01-08T14:48:55.861Z,94813.59
2023-01-08T14:51:04.733Z,94773.41
2023-01-08T14:53:10.836Z,94804.47
2023-01-08T14:55:18.566Z,94805.78
2023-01-08T14:57:24.357Z,94794.28
2023-01-08T14:59:31.216Z,94792.69
2023-01-08T15:01:34.959Z,94791.09
2023-01-08T15:03:39.746Z,94786.81
2023-01-08T15:05:54.265Z,94774.22
2023-01-08T15:08:01.070Z,94772.06
2023-01-08T15:10:03.999Z,94765.09
2023-01-08T15:12:23.361Z,94766.97
2023-01-08T15:14:30.872Z,94756.28
2023-01-08T15:16:38.111Z,94751.97
2023-01-08T15:18:46.376Z,94757.34
2023-01-08T15:20:49.224Z,94752.25
2023-01-08T15:22:52.220Z,94745.03
2023-01-08T15:24:59.262Z,94735.13
2023-01-08T15:27:09.696Z,94754.94
2023-01-08T15:29:19.075Z,94739.66
2023-01-08T15:31:28.198Z,94736.97
2023-01-08T15:33:30.975Z,94740.19
2023-01-08T15:35:34.521Z,94743.16
2023-01-08T15:37:37.234Z,94736.72
2023-01-08T15:39:39.933Z,94726.81
2023-01-08T15:41:59.944Z,94726.81
2023-01-08T15:44:02.709Z,94729.50
2023-01-08T15:46:05.812Z,94728.41
2023-01-08T15:48:11.500Z,94725.75
2023-01-08T15:50:14.628Z,94701.38
2023-01-08T15:52:23.132Z,94718.78
2023-01-08T15:54:26.857Z,94726.28
2023-01-08T15:56:29.776Z,94723.06
2023-01-08T15:58:32.714Z,94703.78
2023-01-08T16:00:35.420Z,94713.44
2023-01-08T16:02:41.962Z,94716.91
2023-01-08T16:04:46.029Z,94726.28
2023-01-08T16:06:52.071Z,94723.88
2023-01-08T16:08:57.723Z,94675.41
2023-01-08T16:11:00.465Z,94700.84
2023-01-08T16:13:03.365Z,94707.28
2023-01-08T16:15:08.290Z,94703.25
2023-01-08T16:17:11.072Z,94697.34
2023-01-08T16:19:13.772Z,94699.50
2023-01-08T16:21:17.885Z,94693.34
2023-01-08T16:23:20.587Z,94690.38
2023-01-08T16:25:24.158Z,94687.72
2023-01-08T16:27:27.078Z,94680.75
2023-01-08T16:29:30.217Z,94687.44
2023-01-08T16:31:32.954Z,94670.03
2023-01-08T16:33:35.983Z,94666.28
2023-01-08T16:35:38.794Z,94668.44
2023-01-08T16:37:42.865Z,94655.31
2023-01-08T16:39:45.733Z,94652.38
2023-01-08T16:41:48.788Z,94642.19
2023-01-08T16:43:51.604Z,94641.38
2023-01-08T16:45:55.075Z,94624.81
2023-01-08T16:47:57.804Z,94652.38
2023-01-08T16:50:00.575Z,94641.41
2023-01-08T16:52:03.297Z,94637.66
2023-01-08T16:54:08.035Z,94643.53
2023-01-08T16:56:11.480Z,94646.50
2023-01-08T16:58:14.176Z,94644.34
2023-01-08T17:00:17.749Z,94630.44
2023-01-08T17:02:20.416Z,94634.44
2023-01-08T17:04:23.117Z,94632.03
2023-01-08T17:06:26.247Z,94628.81
2023-01-08T17:08:29.397Z,94639.00
2023-01-08T17:10:33.483Z,94633.09
2023-01-08T17:12:36.130Z,94631.22
2023-01-08T17:14:38.776Z,94625.34
2023-01-08T17:16:42.665Z,94617.56
2023-01-08T17:18:45.739Z,94611.69
2023-01-08T17:20:54.154Z,94601.53
2023-01-08T17:22:58.820Z,94612.75
2023-01-08T17:25:01.735Z,94611.16
2023-01-08T17:27:05.802Z,94609.00
2023-01-08T17:29:08.485Z,94599.38
2023-01-08T17:31:12.876Z,94602.59
2023-01-08T17:33:15.577Z,94596.97
2023-01-08T17:35:18.498Z,94602.06
2023-01-08T17:37:21.196Z,94592.97
2023-01-08T17:39:23.939Z,94572.59
2023-01-08T17:41:44.377Z,94581.16
2023-01-08T17:43:48.427Z,94586.00
2023-01-08T17:45:51.104Z,94572.59
2023-01-08T17:47:53.829Z,94580.09
2023-01-08T17:49:57.799Z,94583.31
2023-01-08T17:52:00.469Z,94571.53
2023-01-08T17:54:03.233Z,94569.94
2023-01-08T17:56:06.474Z,94576.88
2023-01-08T17:58:09.164Z,94568.84
2023-01-08T18:00:14.355Z,94565.63
2023-01-08T18:02:18.184Z,94559.75
2023-01-08T18:04:21.117Z,94565.66
2023-01-08T18:06:23.786Z,94538.66
2023-01-08T18:08:26.500Z,94557.91
2023-01-08T18:10:29.353Z,94559.75
2023-01-08T18:12:32.514Z,94549.84
2023-01-08T18:14:37.583Z,94546.13
2023-01-08T18:16:45.382Z,94539.44
2023-01-08T18:18:48.224Z,94541.03
2023-01-08T18:20:54.217Z,94534.09
2023-01-08T18:22:57.110Z,94528.47
2023-01-08T18:24:59.831Z,94530.06
2023-01-08T18:27:02.821Z,94538.38
2023-01-08T18:29:05.720Z,94539.97
2023-01-08T18:31:09.805Z,94481.41
2023-01-08T18:33:14.058Z,94544.25
2023-01-08T18:35:18.351Z,94540.50
2023-01-08T18:37:23.150Z,94534.88
2023-01-08T18:39:28.317Z,94533.81
2023-01-08T18:41:59.950Z,94538.38
2023-01-08T18:44:03.841Z,94534.34
2023-01-08T18:46:08.331Z,94521.53
2023-01-08T18:48:11.112Z,94532.50
2023-01-08T18:50:15.195Z,94526.06
2023-01-08T18:52:17.930Z,94519.38
2023-01-08T18:54:20.669Z,94512.94
2023-01-08T18:56:25.378Z,94499.59
2023-01-08T18:58:28.557Z,94518.84
2023-01-08T19:00:31.619Z,94519.66
2023-01-08T19:02:34.478Z,94505.72
2023-01-08T19:04:37.265Z,94510.00
2023-01-08T19:06:41.321Z,94510.00
2023-01-08T19:08:45.689Z,94503.59
2023-01-08T19:10:50.078Z,94503.59
2023-01-08T19:12:52.777Z,94502.53
2023-01-08T19:14:55.806Z,94486.22
2023-01-08T19:16:58.522Z,94492.91
2023-01-08T19:19:01.259Z,94490.47
2023-01-08T19:21:06.545Z,94486.75
2023-01-08T19:23:10.937Z,94481.66
2023-01-08T19:25:14.971Z,94487.03
2023-01-08T19:27:17.695Z,94478.84
2023-01-08T19:29:20.492Z,94477.81
2023-01-08T19:31:23.256Z,94474.38
2023-01-08T19:33:26.310Z,94473.69
2023-01-08T19:35:29.501Z,94473.50
2023-01-08T19:37:32.437Z,94473.28
2023-01-08T19:39:36.741Z,94466.34
2023-01-08T19:41:57.127Z,94461.00
2023-01-08T19:44:00.190Z,94466.13
2023-01-08T19:46:06.803Z,94462.38
2023-01-08T19:48:09.690Z,94450.09
2023-01-08T19:50:13.062Z,94464.00
2023-01-08T19:52:15.812Z,94449.56
2023-01-08T19:54:20.112Z,94451.97
2023-01-08T19:56:24.256Z,94434.63
2023-01-08T19:58:29.357Z,94448.50
2023-01-08T20:00:37.265Z,94452.00
2023-01-08T20:02:40.158Z,94419.34
2023-01-08T20:04:43.810Z,94437.81
2023-01-08T20:06:46.562Z,94434.34
2023-01-08T20:08:50.156Z,94444.50
2023-01-08T20:10:52.870Z,94441.84
2023-01-08T20:12:56.932Z,94444.22
2023-01-08T20:14:59.688Z,94440.75
2023-01-08T20:17:02.827Z,94441.56
2023-01-08T20:19:05.756Z,94345.38
2023-01-08T20:21:10.734Z,94414.56
2023-01-08T20:23:14.445Z,94424.97
2023-01-08T20:25:17.551Z,94433.28
2023-01-08T20:27:20.339Z,94415.38
2023-01-08T20:29:24.495Z,94429.28
2023-01-08T20:31:30.649Z,94372.63
2023-01-08T20:33:33.883Z,94411.09
2023-01-08T20:35:37.746Z,94406.28
2023-01-08T20:37:40.494Z,94399.88
2023-01-08T20:39:43.217Z,94402.53
2023-01-08T20:41:55.709Z,94399.06
2023-01-08T20:44:07.569Z,94401.47
2023-01-08T20:46:13.770Z,94385.97
2023-01-08T20:48:16.595Z,94378.75
2023-01-08T20:50:20.504Z,94342.44
2023-01-08T20:52:23.325Z,94351.25
2023-01-08T20:54:26.062Z,94374.47
2023-01-08T20:56:29.030Z,94372.88
2023-01-08T20:58:31.783Z,94365.66
2023-01-08T21:00:34.557Z,94350.16
2023-01-08T21:02:38.765Z,94358.16
2023-01-08T21:04:41.559Z,94341.88
2023-01-08T21:06:44.314Z,94351.22
2023-01-08T21:08:49.757Z,94338.91
2023-01-08T21:10:57.931Z,94337.59
2023-01-08T21:13:00.856Z,94331.75
2023-01-08T21:15:03.681Z,94339.75
2023-01-08T21:17:06.351Z,94329.88
2023-01-08T21:19:10.869Z,94335.47
2023-01-08T21:21:14.869Z,94283.69
2023-01-08T21:23:17.509Z,94328.25
2023-01-08T21:25:20.218Z,94338.38
2023-01-08T21:27:22.965Z,94338.91
2023-01-08T21:29:26.964Z,94329.03
2023-01-08T21:31:30.234Z,94314.59
2023-01-08T21:33:34.115Z,94303.69
2023-01-08T21:35:38.714Z,94315.94
2023-01-08T21:37:41.411Z,94317.00
2023-01-08T21:39:44.076Z,94319.69
2023-01-08T21:42:04.127Z,94278.31
2023-01-08T21:44:30.152Z,94315.41
2023-01-08T21:46:32.829Z,94316.22
2023-01-08T21:48:35.710Z,94306.31
2023-01-08T21:50:39.689Z,94311.41
2023-01-08T21:52:59.824Z,94308.47
2023-01-08T21:55:03.311Z,94256.69
2023-01-08T21:57:06.301Z,94308.19
2023-01-08T21:59:08.936Z,94294.31
2023-01-08T22:01:11.720Z,94252.16
2023-01-08T22:03:14.699Z,94291.91
2023-01-08T22:05:17.466Z,94275.88
2023-01-08T22:07:21.439Z,94288.16
2023-01-08T22:09:24.103Z,94257.19
2023-01-08T22:11:26.764Z,93709.72
2023-01-08T22:13:29.384Z,94295.94
2023-01-08T22:15:32.125Z,94299.13
2023-01-08T22:17:34.765Z,94297.53
2023-01-08T22:19:38.973Z,94286.03
2023-01-08T22:21:41.837Z,94282.28
2023-01-08T22:23:45.872Z,94267.88
2023-01-08T22:25:48.594Z,94281.22
2023-01-08T22:27:54.073Z,94273.22
2023-01-08T22:29:56.865Z,94285.78
2023-01-08T22:31:59.569Z,94252.94
2023-01-08T22:34:02.599Z,94274.81
2023-01-08T22:36:05.693Z,94262.81
2023-01-08T22:38:08.429Z,94279.38
2023-01-08T22:40:13.366Z,94278.56
2023-01-08T22:42:16.244Z,94265.47
2023-01-08T22:44:19.010Z,94275.34
2023-01-08T22:46:21.729Z,94268.41
2023-01-08T22:48:25.282Z,94235.84
2023-01-08T22:50:28.018Z,94271.59
2023-01-08T22:52:30.853Z,94266.53
2023-01-08T22:54:33.526Z,94260.91
2023-01-08T22:56:37.663Z,94278.56
2023-01-08T22:58:41.191Z,94269.47
2023-01-08T23:00:44.036Z,94271.06
2023-01-08T23:02:46.945Z,94265.72
2023-01-08T23:04:50.804Z,94267.31
2023-01-08T23:06:53.801Z,94264.91
2023-01-08T23:08:57.496Z,94221.44
2023-01-08T23:11:00.188Z,94264.13
2023-01-08T23:13:04.285Z,94254.22
2023-01-08T23:15:08.431Z,94220.91
2023-01-08T23:17:11.559Z,94256.91
2023-01-08T23:19:14.298Z,94256.41
2023-01-08T23:21:18.658Z,94253.19
2023-01-08T23:23:21.377Z,94248.66
2023-01-08T23:25:24.133Z,94243.56
2023-01-08T23:27:26.872Z,94237.69
2023-01-08T23:29:32.082Z,94238.47
2023-01-08T23:31:37.596Z,94243.28
2023-01-08T23:33:40.631Z,94232.84
2023-01-08T23:35:43.616Z,94225.38
2023-01-08T23:37:46.369Z,94224.59
2023-01-08T23:39:49.152Z,94242.50
2023-01-08T23:41:51.838Z,94227.03
2023-01-08T23:43:54.761Z,94223.03
2023-01-08T23:46:03.070Z,94244.09
2023-01-08T23:48:06.369Z,94238.47
2023-01-08T23:50:10.547Z,94240.63
2023-01-08T23:52:13.322Z,94229.38
2023-01-08T23:54:16.105Z,94232.06
2023-01-08T23:56:19.933Z,94231.50
2023-01-08T23:58:22.735Z,94244.88
